Time;durP1;ratioP1;P1;durP2;ratioP2;P2;SDS_P1;SDS_P2;PMS_P1;PMS_P2;Temp;Humidity;BMP_temperature;BMP_pressure;BME280_temperature;BME280_humidity;BME280_pressure;Samples;Min_cycle;Max_cycle;Signal;HPM_P1;HPM_P2
2023/01/19 00:00:10;;;;;;;0.70;0.70;;;3.20;99.90;;;;;;5049436;27;20044;-86
2023/01/19 00:02:36;;;;;;;0.80;0.80;;;3.20;99.90;;;;;;5037007;27;21119;-86
2023/01/19 00:05:04;;;;;;;0.70;0.70;;;3.30;99.90;;;;;;5029875;27;20055;-86
2023/01/19 00:07:30;;;;;;;0.70;0.70;;;3.10;99.90;;;;;;5043341;27;20043;-86
2023/01/19 00:09:56;;;;;;;0.70;0.70;;;3.20;99.90;;;;;;5051078;27;20824;-86
2023/01/19 00:12:22;;;;;;;0.70;0.70;;;3.10;99.90;;;;;;5049641;27;20051;-86
2023/01/19 00:14:48;;;;;;;0.70;0.70;;;3.20;99.90;;;;;;5030954;27;20438;-87
2023/01/19 00:17:14;;;;;;;0.70;0.70;;;3.20;99.90;;;;;;5032265;27;20062;-86
2023/01/19 00:19:39;;;;;;;0.70;0.70;;;3.20;99.90;;;;;;5036765;27;20858;-85
2023/01/19 00:22:05;;;;;;;0.75;0.75;;;3.00;99.90;;;;;;5045257;27;20454;-86
2023/01/19 00:24:32;;;;;;;0.80;0.80;;;3.20;99.90;;;;;;5042943;27;20053;-86
2023/01/19 00:26:57;;;;;;;0.70;0.70;;;3.10;99.90;;;;;;5045125;27;20711;-88
2023/01/19 00:29:23;;;;;;;0.80;0.80;;;3.10;99.90;;;;;;5019100;27;20633;-87
2023/01/19 00:31:50;;;;;;;0.70;0.70;;;3.10;99.90;;;;;;5049062;27;20035;-86
2023/01/19 00:34:16;;;;;;;0.80;0.80;;;3.10;99.90;;;;;;5032955;28;20048;-86
2023/01/19 00:36:41;;;;;;;0.80;0.80;;;3.20;99.90;;;;;;5051290;27;20171;-86
2023/01/19 00:39:07;;;;;;;0.70;0.70;;;3.10;99.90;;;;;;5047255;27;20572;-86
2023/01/19 00:44:17;;;;;;;0.70;0.70;;;2.90;99.90;;;;;;5052134;27;20059;-85
2023/01/19 00:46:43;;;;;;;0.70;0.70;;;3.00;99.90;;;;;;5026702;27;20058;-84
2023/01/19 00:49:09;;;;;;;0.73;0.73;;;3.00;99.90;;;;;;5043535;27;20263;-85
2023/01/19 00:51:35;;;;;;;0.80;0.80;;;2.80;99.90;;;;;;5052014;27;21058;-85
2023/01/19 00:54:03;;;;;;;0.70;0.70;;;3.00;99.90;;;;;;5025515;27;20854;-87
2023/01/19 00:56:32;;;;;;;0.70;0.70;;;2.90;99.90;;;;;;5034029;28;20549;-86
2023/01/19 00:58:59;;;;;;;0.70;0.70;;;2.80;99.90;;;;;;5032080;28;20764;-86
2023/01/19 01:01:25;;;;;;;0.70;0.70;;;2.90;99.90;;;;;;5053064;27;20118;-86
2023/01/19 01:03:52;;;;;;;0.70;0.70;;;2.80;99.90;;;;;;5025440;28;20427;-87
2023/01/19 01:06:19;;;;;;;0.70;0.70;;;2.80;99.90;;;;;;5016679;28;20231;-87
2023/01/19 01:08:44;;;;;;;0.70;0.70;;;2.70;99.90;;;;;;5037117;28;20384;-86
2023/01/19 01:11:10;;;;;;;0.73;0.73;;;2.70;99.90;;;;;;5042643;28;20043;-86
2023/01/19 01:13:36;;;;;;;0.77;0.77;;;2.60;99.90;;;;;;5026876;28;20047;-87
2023/01/19 01:16:02;;;;;;;0.70;0.70;;;2.70;99.90;;;;;;5028443;28;20047;-85
2023/01/19 01:18:28;;;;;;;0.70;0.70;;;2.70;99.90;;;;;;5032116;28;20075;-84
2023/01/19 01:21:06;;;;;;;0.70;0.70;;;2.60;99.90;;;;;;5032940;28;20124;-87
2023/01/19 01:23:33;;;;;;;0.77;0.77;;;2.50;99.90;;;;;;5037304;28;20521;-86
2023/01/19 01:25:59;;;;;;;0.70;0.70;;;2.70;99.90;;;;;;5029061;28;20067;-86
2023/01/19 01:28:25;;;;;;;0.77;0.77;;;2.70;99.90;;;;;;5024963;27;21058;-87
2023/01/19 01:30:55;;;;;;;0.70;0.70;;;2.50;99.90;;;;;;5032323;27;20050;-86
2023/01/19 01:33:21;;;;;;;0.80;0.80;;;2.50;99.90;;;;;;5005376;27;20144;-85
2023/01/19 01:35:48;;;;;;;0.80;0.80;;;2.70;99.90;;;;;;5032749;27;20265;-86
2023/01/19 01:38:15;;;;;;;0.70;0.70;;;2.70;99.90;;;;;;5055723;27;20086;-86
2023/01/19 01:40:42;;;;;;;0.70;0.70;;;2.70;99.90;;;;;;5047923;27;20759;-86
2023/01/19 01:43:15;;;;;;;0.80;0.80;;;2.70;99.90;;;;;;5035666;27;20047;-88
2023/01/19 01:45:41;;;;;;;;;;;2.70;99.90;;;;;;5033603;27;20046;-87
2023/01/19 01:48:29;;;;;;;0.70;0.70;;;2.60;99.90;;;;;;5044315;27;19923;-85
2023/01/19 01:51:25;;;;;;;0.80;0.80;;;2.80;99.90;;;;;;5035954;27;20391;-87
2023/01/19 01:54:13;;;;;;;0.70;0.70;;;2.70;99.90;;;;;;5048715;27;20043;-87
2023/01/19 01:56:46;;;;;;;0.70;0.70;;;2.70;99.90;;;;;;5023631;27;20403;-86
2023/01/19 01:59:28;;;;;;;0.70;0.70;;;2.80;99.90;;;;;;5045254;27;20083;-86
2023/01/19 02:04:51;;;;;;;0.70;0.70;;;2.60;99.90;;;;;;5037949;27;20555;-86
2023/01/19 02:13:19;;;;;;;0.73;0.73;;;2.80;99.90;;;;;;5036319;27;20049;-85
2023/01/19 02:15:50;;;;;;;0.80;0.80;;;2.80;99.90;;;;;;5031259;27;20043;-88
2023/01/19 02:18:17;;;;;;;0.70;0.70;;;2.80;99.90;;;;;;5035703;27;20035;-87
2023/01/19 02:21:19;;;;;;;0.70;0.70;;;2.80;99.90;;;;;;5028328;27;20491;-86
2023/01/19 02:23:52;;;;;;;0.70;0.70;;;2.80;99.90;;;;;;4993370;27;20124;-87
2023/01/19 02:26:28;;;;;;;0.70;0.70;;;3.00;99.90;;;;;;5048696;27;20277;-85
2023/01/19 02:29:04;;;;;;;0.70;0.70;;;2.90;99.90;;;;;;5052871;27;20180;-85
2023/01/19 02:31:31;;;;;;;0.80;0.80;;;2.90;99.90;;;;;;5046309;27;20054;-86
2023/01/19 02:33:59;;;;;;;0.73;0.73;;;2.90;99.90;;;;;;5032865;27;20082;-86
2023/01/19 02:36:34;;;;;;;0.80;0.80;;;2.90;99.90;;;;;;5051916;27;20100;-86
2023/01/19 02:39:02;;;;;;;0.70;0.70;;;3.20;99.90;;;;;;5056559;27;20052;-85
2023/01/19 02:41:33;;;;;;;0.70;0.70;;;3.00;99.90;;;;;;5050854;27;20780;-87
2023/01/19 02:44:00;;;;;;;0.73;0.73;;;3.00;99.90;;;;;;5038538;27;20048;-88
2023/01/19 02:46:26;;;;;;;0.70;0.70;;;3.10;99.90;;;;;;5038020;27;20424;-85
2023/01/19 02:48:57;;;;;;;0.70;0.70;;;3.10;99.90;;;;;;5032316;27;20331;-87
2023/01/19 02:51:24;;;;;;;0.70;0.70;;;2.90;99.90;;;;;;5048276;27;20247;-86
2023/01/19 02:53:56;;;;;;;0.80;0.80;;;2.90;99.90;;;;;;5049688;27;20562;-87
2023/01/19 02:56:32;;;;;;;0.70;0.70;;;3.00;99.90;;;;;;5034357;27;20150;-86
2023/01/19 02:59:12;;;;;;;0.70;0.70;;;3.00;99.90;;;;;;5038027;27;20515;-86
2023/01/19 03:01:40;;;;;;;0.70;0.70;;;3.20;99.90;;;;;;5048377;27;20079;-88
2023/01/19 03:04:08;;;;;;;0.70;0.70;;;3.00;99.90;;;;;;5046836;27;20325;-88
2023/01/19 03:06:44;;;;;;;0.70;0.70;;;3.20;99.90;;;;;;5028197;27;20054;-86
2023/01/19 03:09:20;;;;;;;0.70;0.70;;;3.20;99.90;;;;;;5036504;27;20886;-86
2023/01/19 03:11:52;;;;;;;0.70;0.70;;;3.00;99.90;;;;;;5031227;27;20126;-86
2023/01/19 03:14:27;;;;;;;0.70;0.70;;;3.10;99.90;;;;;;5035164;27;20214;-86
2023/01/19 03:16:58;;;;;;;0.80;0.80;;;3.20;99.90;;;;;;5046605;27;20054;-87
2023/01/19 03:19:33;;;;;;;0.70;0.70;;;3.30;99.90;;;;;;5047874;27;20404;-86
2023/01/19 03:22:20;;;;;;;0.70;0.70;;;3.20;99.90;;;;;;5044426;27;20096;-86
2023/01/19 03:24:52;;;;;;;0.70;0.70;;;3.10;99.90;;;;;;5049090;27;20043;-86
2023/01/19 03:27:25;;;;;;;0.70;0.70;;;3.30;99.90;;;;;;5027682;27;20359;-86
2023/01/19 03:29:54;;;;;;;;;;;3.10;99.90;;;;;;5049491;27;20216;-86
2023/01/19 03:32:28;;;;;;;0.73;0.73;;;3.10;99.90;;;;;;5049795;27;19923;-86
2023/01/19 03:34:58;;;;;;;0.70;0.70;;;3.30;99.90;;;;;;5053239;27;20050;-86
2023/01/19 03:37:26;;;;;;;0.70;0.70;;;3.10;99.90;;;;;;5040457;27;20047;-86
2023/01/19 03:39:51;;;;;;;0.80;0.80;;;3.10;99.90;;;;;;5028671;27;20046;-86
2023/01/19 03:42:19;;;;;;;0.70;0.70;;;3.20;99.90;;;;;;5048053;27;20905;-86
2023/01/19 03:44:49;;;;;;;0.70;0.70;;;3.20;99.90;;;;;;5048582;27;20043;-87
2023/01/19 03:47:16;;;;;;;0.70;0.70;;;3.30;99.90;;;;;;5041882;27;20039;-86
2023/01/19 03:49:44;;;;;;;0.70;0.70;;;3.10;99.90;;;;;;5026785;27;20053;-87
2023/01/19 03:52:11;;;;;;;0.70;0.70;;;3.10;99.90;;;;;;5050308;27;20069;-88
2023/01/19 03:54:37;;;;;;;0.70;0.70;;;3.10;99.90;;;;;;5056247;27;20440;-87
2023/01/19 03:57:06;;;;;;;8.88;4.05;;;3.30;99.90;;;;;;5031164;27;20803;-87
2023/01/19 03:59:32;;;;;;;0.73;0.73;;;3.10;99.90;;;;;;5031634;27;20075;-87
2023/01/19 04:01:58;;;;;;;0.70;0.70;;;3.20;99.90;;;;;;5020568;27;20867;-86
2023/01/19 04:04:24;;;;;;;0.70;0.70;;;3.10;99.90;;;;;;5046370;27;20043;-89
2023/01/19 04:06:50;;;;;;;0.70;0.70;;;3.20;99.90;;;;;;5047597;27;20527;-86
2023/01/19 04:09:16;;;;;;;0.70;0.70;;;3.00;99.90;;;;;;5040802;27;20771;-85
2023/01/19 04:11:42;;;;;;;0.70;0.70;;;3.00;99.90;;;;;;5017566;27;20043;-87
2023/01/19 04:14:07;;;;;;;0.70;0.70;;;3.10;99.90;;;;;;5035025;27;20238;-85
2023/01/19 04:16:34;;;;;;;0.70;0.70;;;2.90;99.90;;;;;;5054212;27;20395;-87
2023/01/19 04:18:59;;;;;;;0.70;0.70;;;3.00;99.90;;;;;;5050166;27;20243;-86
2023/01/19 04:21:25;;;;;;;0.70;0.70;;;2.90;99.90;;;;;;5012359;27;20383;-88
2023/01/19 04:23:52;;;;;;;0.75;0.75;;;2.90;99.90;;;;;;5034109;27;20377;-87
2023/01/19 04:26:18;;;;;;;0.70;0.70;;;2.90;99.90;;;;;;5009584;27;20063;-87
2023/01/19 04:28:43;;;;;;;0.70;0.70;;;2.90;99.90;;;;;;5027527;27;20053;-87
2023/01/19 04:31:09;;;;;;;0.70;0.70;;;2.90;99.90;;;;;;5053787;27;20274;-87
2023/01/19 04:33:35;;;;;;;0.70;0.70;;;3.10;99.90;;;;;;5056265;27;20081;-87
2023/01/19 04:36:02;;;;;;;0.70;0.70;;;2.90;99.90;;;;;;5018360;27;20412;-86
2023/01/19 04:38:28;;;;;;;0.70;0.70;;;2.90;99.90;;;;;;5034103;27;20035;-87
2023/01/19 04:40:54;;;;;;;0.77;0.77;;;2.70;99.90;;;;;;5040836;27;20050;-87
2023/01/19 04:43:21;;;;;;;0.70;0.70;;;2.80;99.90;;;;;;5008721;27;20100;-87
2023/01/19 04:45:48;;;;;;;0.80;0.80;;;2.90;99.90;;;;;;5058569;27;20104;-86
2023/01/19 04:48:15;;;;;;;0.70;0.70;;;2.90;99.90;;;;;;5044758;27;20039;-86
2023/01/19 04:50:43;;;;;;;0.80;0.80;;;2.70;99.90;;;;;;5060716;27;20055;-87
2023/01/19 04:53:09;;;;;;;0.80;0.80;;;3.00;99.90;;;;;;5028386;27;20424;-87
2023/01/19 04:55:37;;;;;;;0.70;0.70;;;2.90;99.90;;;;;;5033192;27;20407;-87
2023/01/19 04:58:03;;;;;;;0.70;0.70;;;2.70;99.90;;;;;;5051543;27;20058;-87
2023/01/19 05:00:29;;;;;;;0.80;0.80;;;2.70;99.90;;;;;;5034883;27;20171;-87
2023/01/19 05:02:55;;;;;;;0.70;0.70;;;2.80;99.90;;;;;;5036795;27;20054;-87
2023/01/19 05:05:21;;;;;;;0.73;0.73;;;2.50;99.90;;;;;;5046995;27;20205;-87
2023/01/19 05:07:46;;;;;;;0.70;0.70;;;2.70;99.90;;;;;;5038400;27;20591;-87
2023/01/19 05:10:12;;;;;;;0.70;0.70;;;2.60;99.90;;;;;;5036238;27;20406;-88
2023/01/19 05:12:38;;;;;;;0.70;0.70;;;2.60;99.90;;;;;;5037973;27;20043;-88
2023/01/19 05:15:06;;;;;;;0.70;0.70;;;2.80;99.90;;;;;;5047266;27;20614;-88
2023/01/19 05:17:32;;;;;;;0.70;0.70;;;2.80;99.90;;;;;;5022248;27;20035;-87
2023/01/19 05:19:57;;;;;;;0.77;0.77;;;2.90;99.90;;;;;;5034549;27;20416;-86
2023/01/19 05:22:23;;;;;;;0.70;0.70;;;2.90;99.90;;;;;;5038196;27;20605;-87
2023/01/19 05:24:49;;;;;;;0.80;0.80;;;2.70;99.90;;;;;;5034506;27;20043;-88
2023/01/19 05:27:14;;;;;;;0.70;0.70;;;2.90;99.90;;;;;;5038167;27;20873;-87
2023/01/19 05:29:43;;;;;;;0.70;0.70;;;2.80;99.90;;;;;;5027746;27;20039;-88
2023/01/19 05:32:09;;;;;;;0.80;0.80;;;2.80;99.90;;;;;;5035726;27;20134;-88
2023/01/19 05:34:35;;;;;;;0.70;0.70;;;2.80;99.90;;;;;;5016661;27;20055;-89
2023/01/19 05:37:01;;;;;;;0.70;0.70;;;2.80;99.90;;;;;;5067401;27;20061;-88
2023/01/19 05:39:28;;;;;;;0.77;0.77;;;3.00;99.90;;;;;;5078520;27;20535;-89
2023/01/19 05:41:54;;;;;;;0.70;0.70;;;2.80;99.90;;;;;;5041851;27;20039;-88
2023/01/19 05:44:22;;;;;;;0.80;0.80;;;2.90;99.90;;;;;;5028433;27;20565;-88
2023/01/19 05:46:48;;;;;;;0.70;0.70;;;3.20;99.90;;;;;;5033894;27;20495;-87
2023/01/19 05:49:14;;;;;;;0.70;0.70;;;3.00;99.90;;;;;;5021603;27;20072;-88
2023/01/19 05:51:44;;;;;;;0.70;0.70;;;3.00;99.90;;;;;;5017607;27;20035;-87
2023/01/19 05:54:14;;;;;;;0.70;0.70;;;3.20;99.90;;;;;;5026063;27;20758;-88
2023/01/19 05:56:39;;;;;;;0.75;0.75;;;3.30;99.90;;;;;;5040878;27;20531;-89
2023/01/19 05:59:05;;;;;;;0.80;0.80;;;3.20;99.90;;;;;;5021192;27;21087;-88
2023/01/19 06:01:33;;;;;;;0.70;0.70;;;3.30;99.90;;;;;;4993462;27;20128;-88
2023/01/19 06:03:59;;;;;;;0.73;0.73;;;3.30;99.90;;;;;;5016291;27;20049;-87
2023/01/19 06:06:25;;;;;;;0.77;0.77;;;3.50;99.90;;;;;;5036670;27;20047;-88
2023/01/19 06:08:51;;;;;;;0.80;0.80;;;3.40;99.90;;;;;;5037588;27;20121;-88
2023/01/19 06:11:21;;;;;;;0.80;0.80;;;3.40;99.90;;;;;;5056466;27;20566;-88
2023/01/19 06:13:47;;;;;;;0.80;0.80;;;3.60;99.90;;;;;;5037640;27;20498;-88
2023/01/19 06:16:13;;;;;;;0.80;0.80;;;3.60;99.90;;;;;;5054610;27;20043;-88
2023/01/19 06:18:39;;;;;;;0.70;0.70;;;3.60;99.90;;;;;;5032693;27;20046;-89
2023/01/19 06:21:11;;;;;;;0.70;0.70;;;3.90;99.90;;;;;;5038805;27;20043;-87
2023/01/19 06:23:37;;;;;;;0.70;0.70;;;3.80;99.90;;;;;;5023816;27;20459;-89
2023/01/19 06:26:03;;;;;;;0.70;0.70;;;3.70;99.90;;;;;;5061564;27;20451;-89
2023/01/19 06:28:29;;;;;;;0.80;0.80;;;3.90;99.90;;;;;;5046601;27;20099;-89
2023/01/19 06:30:58;;;;;;;0.70;0.70;;;3.80;99.90;;;;;;5029607;27;20050;-89
2023/01/19 06:33:25;;;;;;;0.70;0.70;;;3.90;99.90;;;;;;5063414;27;20394;-89
2023/01/19 06:35:54;;;;;;;0.70;0.70;;;3.70;99.90;;;;;;5044764;27;20596;-90
2023/01/19 06:38:20;;;;;;;0.70;0.70;;;3.70;99.90;;;;;;5047515;27;20466;-89
2023/01/19 06:41:02;;;;;;;0.70;0.70;;;4.00;99.90;;;;;;5029988;27;20134;-89
2023/01/19 06:43:30;;;;;;;0.80;0.80;;;3.70;99.90;;;;;;5058708;27;20475;-89
2023/01/19 06:45:57;;;;;;;0.70;0.70;;;3.70;99.90;;;;;;5039968;27;20040;-88
2023/01/19 06:48:23;;;;;;;0.70;0.70;;;3.80;99.90;;;;;;5047277;27;20474;-88
2023/01/19 06:50:48;;;;;;;0.70;0.70;;;3.80;99.90;;;;;;5062161;27;20051;-89
2023/01/19 06:53:15;;;;;;;0.70;0.70;;;3.60;99.90;;;;;;5043231;27;20192;-89
2023/01/19 06:55:44;;;;;;;0.80;0.80;;;3.60;99.90;;;;;;5047534;27;20047;-88
2023/01/19 06:58:11;;;;;;;0.70;0.70;;;3.80;99.90;;;;;;5047114;27;20094;-89
2023/01/19 07:00:37;;;;;;;0.73;0.73;;;3.70;99.90;;;;;;5040145;27;20563;-89
2023/01/19 07:03:06;;;;;;;0.70;0.70;;;3.60;99.90;;;;;;5043831;27;20047;-88
2023/01/19 07:05:34;;;;;;;0.70;0.70;;;3.70;99.90;;;;;;5061852;27;20444;-88
2023/01/19 07:08:00;;;;;;;0.70;0.70;;;3.60;99.90;;;;;;5061579;27;20357;-89
2023/01/19 07:10:26;;;;;;;0.75;0.75;;;3.70;99.90;;;;;;5043427;27;20115;-88
2023/01/19 07:12:52;;;;;;;0.70;0.70;;;3.60;99.90;;;;;;5042736;27;20384;-88
2023/01/19 07:15:21;;;;;;;0.80;0.80;;;3.50;99.90;;;;;;5038679;27;20042;-87
2023/01/19 07:17:47;;;;;;;0.70;0.70;;;3.50;99.90;;;;;;5043187;27;20054;-88
2023/01/19 07:20:13;;;;;;;0.70;0.70;;;3.60;99.90;;;;;;5042347;27;20314;-87
2023/01/19 07:22:44;;;;;;;0.70;0.70;;;3.60;99.90;;;;;;5023967;27;20520;-88
2023/01/19 07:25:10;;;;;;;0.70;0.70;;;3.60;99.90;;;;;;5059559;27;20047;-87
2023/01/19 07:27:36;;;;;;;0.70;0.70;;;3.60;99.90;;;;;;5039466;27;20096;-88
2023/01/19 07:30:03;;;;;;;0.70;0.70;;;3.50;99.90;;;;;;5009180;27;20928;-86
2023/01/19 07:32:29;;;;;;;0.70;0.70;;;3.50;99.90;;;;;;5034206;27;20046;-88
2023/01/19 07:34:57;;;;;;;0.70;0.70;;;3.70;99.90;;;;;;5035471;27;20055;-88
2023/01/19 07:37:26;;;;;;;0.70;0.70;;;3.80;99.90;;;;;;5053161;27;20042;-89
2023/01/19 07:39:52;;;;;;;0.70;0.70;;;3.70;99.90;;;;;;5025194;27;20042;-88
2023/01/19 07:42:17;;;;;;;0.70;0.70;;;3.70;99.90;;;;;;5045142;27;20214;-89
2023/01/19 07:44:43;;;;;;;0.70;0.70;;;3.60;99.90;;;;;;5027257;27;20841;-88
2023/01/19 07:47:14;;;;;;;0.80;0.80;;;3.60;99.90;;;;;;5031383;27;20461;-90
2023/01/19 07:49:42;;;;;;;0.70;0.70;;;3.70;99.90;;;;;;5062277;27;20062;-88
2023/01/19 07:52:08;;;;;;;0.73;0.73;;;3.80;99.90;;;;;;5021158;27;20236;-88
2023/01/19 07:54:34;;;;;;;0.70;0.70;;;3.80;99.90;;;;;;5063609;27;20182;-89
2023/01/19 07:57:00;;;;;;;0.70;0.70;;;3.70;99.90;;;;;;5031857;27;20057;-88
2023/01/19 07:59:29;;;;;;;0.70;0.70;;;3.70;99.90;;;;;;5018522;27;20043;-87
2023/01/19 08:01:58;;;;;;;0.70;0.70;;;3.80;99.90;;;;;;5041974;27;20049;-88
2023/01/19 08:04:27;;;;;;;0.70;0.70;;;3.90;99.90;;;;;;5042255;27;20042;-88
2023/01/19 08:06:57;;;;;;;0.70;0.70;;;4.00;99.90;;;;;;5015562;27;20518;-87
2023/01/19 08:09:23;;;;;;;0.70;0.70;;;3.90;99.90;;;;;;5056553;27;20300;-87
2023/01/19 08:11:52;;;;;;;0.70;0.70;;;4.00;99.90;;;;;;5025613;27;20066;-88
2023/01/19 08:14:18;;;;;;;0.70;0.70;;;4.00;99.90;;;;;;5030873;27;20151;-87
2023/01/19 08:16:43;;;;;;;0.70;0.70;;;4.00;99.90;;;;;;5036681;27;20569;-88
2023/01/19 08:19:09;;;;;;;0.70;0.70;;;4.00;99.90;;;;;;5022547;27;20159;-87
2023/01/19 08:21:37;;;;;;;0.70;0.70;;;4.10;99.90;;;;;;5030204;27;20266;-86
2023/01/19 08:24:06;;;;;;;0.70;0.70;;;4.10;99.90;;;;;;5056510;27;20121;-87
2023/01/19 08:26:34;;;;;;;0.70;0.70;;;4.00;99.90;;;;;;5035757;27;20043;-88
2023/01/19 08:29:02;;;;;;;0.70;0.70;;;3.90;99.90;;;;;;5025687;27;20054;-88
2023/01/19 08:31:29;;;;;;;0.70;0.70;;;3.80;99.90;;;;;;5056948;27;20129;-87
2023/01/19 08:33:55;;;;;;;0.70;0.70;;;3.90;99.90;;;;;;5077978;27;20050;-89
2023/01/19 08:36:21;;;;;;;0.70;0.70;;;3.90;99.90;;;;;;5039507;27;20050;-88
2023/01/19 08:38:47;;;;;;;0.70;0.70;;;3.90;99.90;;;;;;5010436;27;20129;-89
2023/01/19 08:41:15;;;;;;;0.70;0.70;;;3.90;99.90;;;;;;5029419;27;20049;-90
2023/01/19 08:43:41;;;;;;;0.70;0.70;;;3.80;99.90;;;;;;5060031;27;20115;-88
2023/01/19 08:46:09;;;;;;;0.70;0.70;;;3.80;99.90;;;;;;5040636;27;20063;-87
2023/01/19 08:48:35;;;;;;;0.70;0.70;;;3.90;99.90;;;;;;5051301;27;20042;-88
2023/01/19 08:51:00;;;;;;;0.77;0.77;;;4.00;99.90;;;;;;5045605;27;20729;-88
2023/01/19 08:53:26;;;;;;;0.70;0.70;;;4.10;99.90;;;;;;5034703;27;20054;-89
2023/01/19 08:55:56;;;;;;;0.70;0.70;;;4.10;99.90;;;;;;5023328;27;20050;-89
2023/01/19 08:58:22;;;;;;;0.70;0.70;;;4.20;99.90;;;;;;5040698;27;20171;-89
2023/01/19 09:00:51;;;;;;;0.70;0.70;;;4.30;99.90;;;;;;5037351;27;20495;-87
2023/01/19 09:03:17;;;;;;;0.80;0.80;;;4.30;99.90;;;;;;5009957;27;20058;-88
2023/01/19 09:05:43;;;;;;;0.70;0.70;;;4.40;99.90;;;;;;5030852;27;20715;-88
2023/01/19 09:08:14;;;;;;;0.70;0.70;;;4.50;99.90;;;;;;5021176;27;20047;-87
2023/01/19 09:10:45;;;;;;;0.60;0.60;;;4.50;99.90;;;;;;5028461;27;20056;-88
2023/01/19 09:13:11;;;;;;;0.70;0.70;;;4.50;99.90;;;;;;5032156;27;20043;-87
2023/01/19 09:15:42;;;;;;;0.73;0.73;;;4.60;99.90;;;;;;5053956;27;20051;-87
2023/01/19 09:18:13;;;;;;;0.70;0.70;;;4.60;99.90;;;;;;5019139;27;20715;-87
2023/01/19 09:20:41;;;;;;;0.70;0.70;;;4.70;99.90;;;;;;5047741;27;20110;-87
2023/01/19 09:23:09;;;;;;;0.70;0.70;;;4.70;99.90;;;;;;5028274;27;20046;-87
2023/01/19 09:25:37;;;;;;;0.70;0.70;;;4.80;99.90;;;;;;5043258;27;20038;-88
2023/01/19 09:28:04;;;;;;;0.70;0.70;;;4.90;99.90;;;;;;5052893;27;20186;-87
2023/01/19 09:30:31;;;;;;;0.70;0.70;;;4.90;99.90;;;;;;5028252;27;20039;-86
2023/01/19 09:33:09;;;;;;;0.70;0.70;;;5.00;99.90;;;;;;5033956;27;20141;-88
2023/01/19 09:35:40;;;;;;;0.70;0.70;;;5.00;99.90;;;;;;5039505;27;20605;-88
2023/01/19 09:38:07;;;;;;;0.70;0.70;;;4.90;99.90;;;;;;5051640;27;20600;-87
2023/01/19 09:40:35;;;;;;;0.70;0.70;;;4.80;99.90;;;;;;5034574;27;20046;-88
2023/01/19 09:43:24;;;;;;;0.70;0.70;;;4.80;99.90;;;;;;5018574;27;20039;-86
2023/01/19 09:45:52;;;;;;;0.60;0.60;;;4.80;99.90;;;;;;5031827;27;20055;-87
2023/01/19 09:48:28;;;;;;;0.70;0.70;;;4.90;99.90;;;;;;5049999;27;20074;-86
2023/01/19 09:50:56;;;;;;;0.70;0.70;;;4.70;99.90;;;;;;5050680;27;20051;-88
2023/01/19 09:53:55;;;;;;;0.70;0.70;;;4.80;99.90;;;;;;5035797;27;20042;-87
2023/01/19 09:56:22;;;;;;;0.70;0.70;;;4.70;99.90;;;;;;5054436;27;20043;-87
2023/01/19 09:58:49;;;;;;;0.70;0.70;;;4.70;99.90;;;;;;5052386;27;20621;-87
2023/01/19 10:01:36;;;;;;;0.70;0.70;;;4.70;99.90;;;;;;5055098;27;20893;-87
2023/01/19 10:04:10;;;;;;;0.60;0.60;;;4.80;99.90;;;;;;5037573;27;20049;-86
2023/01/19 10:06:36;;;;;;;0.60;0.60;;;5.00;99.90;;;;;;5062198;27;20553;-86
2023/01/19 10:09:19;;;;;;;0.70;0.70;;;5.00;99.90;;;;;;5036040;27;20480;-85
2023/01/19 10:11:55;;;;;;;0.70;0.70;;;5.10;99.90;;;;;;5045252;27;20057;-86
2023/01/19 10:14:32;;;;;;;0.70;0.70;;;4.90;99.90;;;;;;5050076;27;20077;-87
2023/01/19 10:17:03;;;;;;;0.70;0.70;;;4.80;99.90;;;;;;5050743;27;20055;-86
2023/01/19 10:19:36;;;;;;;0.70;0.70;;;4.80;99.90;;;;;;5048509;27;20043;-86
2023/01/19 10:22:17;;;;;;;0.70;0.70;;;4.80;99.90;;;;;;5055498;27;20103;-87
2023/01/19 10:24:47;;;;;;;0.70;0.70;;;4.90;99.90;;;;;;5048368;27;20058;-86
2023/01/19 10:27:16;;;;;;;0.70;0.70;;;5.20;99.90;;;;;;5031381;27;20047;-86
2023/01/19 10:29:43;;;;;;;0.70;0.70;;;5.20;99.90;;;;;;5060461;27;20050;-87
2023/01/19 10:32:21;;;;;;;0.70;0.70;;;5.20;99.90;;;;;;5052989;27;20042;-87
2023/01/19 10:34:52;;;;;;;0.70;0.70;;;5.40;99.90;;;;;;5045285;27;20051;-86
2023/01/19 10:37:27;;;;;;;0.60;0.60;;;5.50;99.90;;;;;;5027783;27;20035;-87
2023/01/19 10:40:01;;;;;;;0.65;0.65;;;5.70;99.90;;;;;;5039711;27;20050;-87
2023/01/19 10:42:29;;;;;;;0.60;0.60;;;5.80;99.90;;;;;;5056519;27;20506;-86
2023/01/19 10:44:54;;;;;;;0.60;0.60;;;5.90;99.90;;;;;;5050459;27;20057;-87
2023/01/19 10:47:28;;;;;;;0.60;0.60;;;6.00;99.90;;;;;;5015721;27;20042;-87
2023/01/19 10:49:54;;;;;;;0.70;0.70;;;6.00;99.90;;;;;;5046124;27;20162;-86
2023/01/19 10:52:34;;;;;;;0.60;0.60;;;6.20;99.90;;;;;;5047435;27;20477;-87
2023/01/19 10:55:02;;;;;;;0.60;0.60;;;6.20;99.90;;;;;;5054257;27;21025;-86
2023/01/19 10:57:33;;;;;;;0.60;0.60;;;6.30;99.90;;;;;;5050504;27;20230;-86
2023/01/19 10:59:59;;;;;;;0.63;0.63;;;6.40;99.90;;;;;;5051530;27;20039;-87
2023/01/19 11:02:27;;;;;;;0.60;0.60;;;6.40;99.90;;;;;;5032665;27;20440;-86
2023/01/19 11:04:58;;;;;;;0.60;0.60;;;6.40;99.90;;;;;;5034116;27;20050;-87
2023/01/19 11:07:26;;;;;;;0.60;0.60;;;6.50;99.90;;;;;;5044246;27;20136;-86
2023/01/19 11:10:14;;;;;;;0.60;0.60;;;6.50;99.90;;;;;;5024748;27;20169;-87
2023/01/19 11:12:42;;;;;;;0.60;0.60;;;6.60;99.90;;;;;;5049587;27;20047;-86
2023/01/19 11:15:20;;;;;;;0.65;0.65;;;6.50;99.90;;;;;;5044824;27;20043;-85
2023/01/19 11:17:47;;;;;;;0.60;0.60;;;6.50;99.90;;;;;;5047509;27;20822;-86
2023/01/19 11:20:29;;;;;;;0.60;0.60;;;6.70;99.90;;;;;;5034979;27;20057;-86
2023/01/19 11:23:17;;;;;;;0.60;0.60;;;6.80;99.90;;;;;;5049130;27;20051;-85
2023/01/19 11:25:46;;;;;;;0.60;0.60;;;6.90;99.90;;;;;;5032995;27;20051;-86
2023/01/19 11:28:26;;;;;;;0.60;0.60;;;6.90;99.90;;;;;;5032501;27;20039;-86
2023/01/19 11:30:57;;;;;;;0.60;0.60;;;6.90;99.90;;;;;;5052443;27;20555;-85
2023/01/19 11:33:44;;;;;;;0.60;0.60;;;7.00;99.90;;;;;;5044349;27;20051;-86
2023/01/19 11:36:27;;;;;;;0.70;0.70;;;7.00;99.90;;;;;;5049656;27;20928;-86
2023/01/19 11:38:58;;;;;;;0.70;0.70;;;7.00;99.90;;;;;;5054426;27;20046;-86
2023/01/19 11:41:34;;;;;;;0.65;0.65;;;7.10;99.90;;;;;;5044495;27;20489;-85
2023/01/19 11:44:15;;;;;;;0.60;0.60;;;7.10;99.90;;;;;;5050888;27;20058;-86
2023/01/19 11:46:44;;;;;;;0.60;0.60;;;7.10;99.90;;;;;;5045034;27;20051;-86
2023/01/19 11:49:34;;;;;;;0.60;0.60;;;7.10;99.90;;;;;;5050444;27;20042;-86
2023/01/19 11:52:17;;;;;;;0.60;0.60;;;7.20;99.90;;;;;;5037653;27;20556;-85
2023/01/19 11:55:13;;;;;;;0.60;0.60;;;7.30;99.90;;;;;;5049399;27;20043;-86
2023/01/19 11:57:45;;;;;;;0.60;0.60;;;7.40;99.90;;;;;;5039220;27;20169;-86
2023/01/19 12:00:24;;;;;;;0.60;0.60;;;7.40;99.90;;;;;;5028374;27;20043;-85
2023/01/19 12:02:56;;;;;;;0.60;0.60;;;7.40;99.90;;;;;;5044926;27;20053;-87
2023/01/19 12:05:26;;;;;;;0.60;0.60;;;7.50;99.90;;;;;;5046009;27;20046;-86
2023/01/19 12:07:52;;;;;;;0.60;0.60;;;7.40;99.90;;;;;;5047865;27;20412;-85
2023/01/19 12:10:26;;;;;;;0.60;0.60;;;7.50;99.90;;;;;;5051076;27;20463;-87
2023/01/19 12:12:53;;;;;;;0.60;0.60;;;7.50;99.90;;;;;;5031094;27;20149;-85
2023/01/19 12:15:29;;;;;;;0.60;0.60;;;7.50;99.90;;;;;;5048686;27;20047;-85
2023/01/19 12:17:59;;;;;;;0.60;0.60;;;7.50;99.90;;;;;;5042722;27;20676;-86
2023/01/19 12:20:36;;;;;;;0.60;0.60;;;7.60;99.90;;;;;;5035022;27;20046;-85
2023/01/19 12:23:20;;;;;;;0.70;0.70;;;7.40;99.90;;;;;;5043580;27;20099;-86
2023/01/19 12:25:51;;;;;;;0.70;0.70;;;7.40;99.90;;;;;;5044726;27;20503;-86
2023/01/19 12:28:19;;;;;;;0.60;0.60;;;7.00;99.90;;;;;;5043584;27;20057;-85
2023/01/19 12:30:45;;;;;;;0.60;0.60;;;7.00;99.90;;;;;;5039422;27;20476;-86
2023/01/19 12:33:32;;;;;;;0.60;0.60;;;7.00;99.90;;;;;;5043231;27;20128;-85
2023/01/19 12:36:04;;;;;;;0.60;0.60;;;7.00;99.90;;;;;;5047401;27;20051;-86
2023/01/19 12:38:55;;;;;;;0.60;0.60;;;6.70;99.90;;;;;;5047540;27;20066;-85
2023/01/19 12:41:26;;;;;;;0.60;0.60;;;6.60;99.90;;;;;;5050806;27;20478;-86
2023/01/19 12:44:10;;;;;;;0.60;0.60;;;6.50;99.90;;;;;;5075841;27;20085;-84
2023/01/19 12:46:48;;;;;;;0.60;0.60;;;6.50;99.90;;;;;;5073259;27;20050;-85
2023/01/19 12:49:34;;;;;;;0.60;0.60;;;6.60;99.90;;;;;;5073039;27;20240;-85
2023/01/19 12:52:27;;;;;;;0.60;0.60;;;7.10;99.90;;;;;;5066349;27;20039;-85
2023/01/19 12:55:16;;;;;;;0.70;0.70;;;7.40;99.90;;;;;;5065243;27;20039;-86
2023/01/19 12:58:03;;;;;;;0.60;0.60;;;7.80;99.90;;;;;;5058170;27;20380;-86
2023/01/19 13:00:34;;;;;;;0.70;0.70;;;8.10;99.90;;;;;;5056725;27;20043;-85
2023/01/19 13:03:17;;;;;;;0.70;0.70;;;8.30;99.90;;;;;;5064437;27;20093;-86
2023/01/19 13:05:43;;;;;;;0.60;0.60;;;8.30;99.90;;;;;;5066108;27;21020;-86
2023/01/19 13:08:08;;;;;;;0.60;0.60;;;8.40;99.90;;;;;;5065169;27;20075;-85
2023/01/19 13:10:58;;;;;;;0.60;0.60;;;8.40;99.90;;;;;;5068762;27;20069;-85
2023/01/19 13:14:04;;;;;;;0.60;0.60;;;8.40;99.90;;;;;;5067751;27;20441;-87
2023/01/19 13:16:30;;;;;;;0.60;0.60;;;8.30;99.90;;;;;;5068852;27;20101;-86
2023/01/19 13:18:58;;;;;;;0.60;0.60;;;8.30;99.90;;;;;;5062112;27;20570;-86
2023/01/19 13:21:44;;;;;;;0.60;0.60;;;8.10;99.90;;;;;;5072153;27;20547;-84
2023/01/19 13:24:21;;;;;;;0.60;0.60;;;8.00;99.90;;;;;;5078011;27;20755;-87